首页
METAR-TAF:

METAR-TAF

机场 :

萨尔瓦多奥斯卡·阿努尔福·罗梅罗-伊-加尔达梅斯主教国际机场

萨尔瓦多, 萨尔瓦多

纬度: 13-26N, 经度: 089-03W, 海拔: 25米

当前天气观测

该预报发布于1小时和8分钟前的16:50 UTC
风速2节,风向多变
温度 28°C
湿度 84%
气压 1013 hPa
能见度10公里或以上
少量云层高于1200英尺
多云层高于2300英尺

METAR: MSLP 061650Z VRB02KT 9999 FEW012 BKN023 28/25 Q1013 A2992 NOSIG

时间: 11:58 (17:58 UTC)

预报

该预报发布于2小时和33分钟前的15:25 UTC
预报有效从06日的 18点(UTC)到 07日的 18点(UTC)
风速6节,风向南转西南
能見度: 8000
散云层高于1300英尺
少量云层高于3700英尺, 积雨云.
多云层高于2000英尺
从 07日的 0100点(UTC)
风速5节,风向北转东北
能见度10公里或以上
散云层高于2000英尺
少量云层高于3700英尺, 积雨云.
散云层高于6500英尺
从 07日的 1200点(UTC)
少量云层高于1700英尺
散云层高于7500英尺

TAF: MSLP 061525Z 0618/0718 20006KT 8000 RA SCT013 FEW037CB BKN020 TX29/0618Z TN24/0711Z FM070100 02005KT 9999 SCT020 FEW037CB SCT065 FM071200 FEW017 SCT075

超过4000个机场的气象观测和天气预报(METAR&TAF报告)。

可查询的气象台以黄色和红色小点在地图上表示。

将鼠标移到小点上方,可查看气象台名称。

然后点击查看天气观测和预报。

如需切换地图:点击带黑十字的绿色按钮放大地图;点击带横线的绿色按钮缩小地图;或者点击绿色箭头查看邻近地区的地图。


METAR-TAF: